Terminal Aerodrome Forecast
Issued by NWS Los Angeles, CA

Home | Current Version | Previous Version | Text Only | Print | Product List | Glossary On
Versions: 1 2 3 4 5 6 7 8 9 10 11 12 13 14 15 16 17 18 19 20 21 22 23 24 25 26 27 28 29 30
266
FTUS46 KLOX 240538
TAFSMX
TAF
KSMX 240538Z 2406/2506 VRB03KT P6SM VCSH BKN060
     FM241000 VRB03KT P6SM SKC
     FM241900 23006KT P6SM VCSH SCT030 BKN060
     FM250100 VRB03KT P6SM SKC=

USA.gov is the U.S. government's official web portal to all federal, state and local government web resources and services.